M I D A S
Marine Information and Data Acquisition System
Tripno 1383 of the Zeeleeuw from 2007-10-17 06:45:15 to 2007-10-17 14:47:27
Back to CruiseResearch ActivitiesStationsMapUnderway DataData graphs

EquipmentUnitsComments
TimeDGPSUTC
LatitudeDGPSDM.mWGS84
LongitudeDGPSDM.mWGS84
SpeedMeteo Stationm/sRelative wind speed
DirectionMeteo StationdegRelative wind direction
TemperatureMeteo Stationdeg CelciusAir temperature
PressureMeteo StationPaAtmospheric pressure
HumidityMeteo Station%Relative humidity
Missing or incorrect values are displayed as -999
Metereological data collected by the RV Zeeleeuw from 2007-10-17 06:05:17 to 2007-10-17 15:01:04
Time Latitude Longitude Speed Direction Temperature Pressure Humidity
2007-10-17 06:06 51°13.597 2°56.093 -999 -999 -999 -999 -999
2007-10-17 06:07 51°13.596 2°56.093 1.5 9 12.6 101140 100
2007-10-17 06:08 51°13.597 2°56.093 3.7 356 12.6 101140 100
2007-10-17 06:09 51°13.597 2°56.094 2.1 359 12.6 101150 100
2007-10-17 06:10 51°13.597 2°56.094 1.9 12 12.6 101150 100
2007-10-17 06:11 51°13.597 2°56.094 2.7 6 12.6 101150 100
2007-10-17 06:12 51°13.598 2°56.094 3.1 19 12.6 101150 100
2007-10-17 06:13 51°13.598 2°56.094 3 10 12.6 101150 100
2007-10-17 06:14 51°13.598 2°56.094 3.9 9 12.7 101150 100
2007-10-17 06:15 51°13.598 2°56.094 3.8 12 12.7 101160 100
2007-10-17 06:16 51°13.598 2°56.094 2.4 2 12.7 101150 100
2007-10-17 06:17 51°13.599 2°56.095 2.8 3 12.7 101160 100
2007-10-17 06:18 51°13.599 2°56.095 3.7 3 12.7 101160 100
2007-10-17 06:19 51°13.599 2°56.095 3.1 355 12.7 101160 100
2007-10-17 06:20 51°13.596 2°56.096 3.3 17 12.7 101160 100
2007-10-17 06:21 51°13.596 2°56.096 3.8 4 12.7 101160 100
2007-10-17 06:22 51°13.596 2°56.097 3.2 24 12.7 101170 100
2007-10-17 06:23 51°13.596 2°56.097 3.8 3 12.7 101170 100
2007-10-17 06:24 51°13.597 2°56.097 2.2 1 12.7 101170 100
2007-10-17 06:25 51°13.597 2°56.097 3.9 12 12.8 101170 100
2007-10-17 06:26 51°13.593 2°56.097 5.6 19 12.8 101170 100
2007-10-17 06:27 51°13.598 2°56.097 4.8 11 12.8 101170 100
2007-10-17 06:28 51°13.598 2°56.097 3.9 4 12.8 101170 100
2007-10-17 06:29 51°13.598 2°56.097 5 6 12.8 101170 100
2007-10-17 06:30 51°13.598 2°56.096 5.5 6 12.8 101170 100
2007-10-17 06:31 51°13.597 2°56.096 3.3 5 12.8 101170 100
2007-10-17 06:32 51°13.598 2°56.097 4 11 12.8 101180 100
2007-10-17 06:33 51°13.598 2°56.097 5.7 12 12.8 101170 100
2007-10-17 06:34 51°13.603 2°56.097 4.3 7 12.8 101180 100
2007-10-17 06:35 51°13.603 2°56.097 2.5 9 12.8 101170 100
2007-10-17 06:36 51°13.598 2°56.097 2.9 10 12.8 101170 100
2007-10-17 06:37 51°13.597 2°56.097 2.9 358 12.8 101180 100
2007-10-17 06:38 51°13.596 2°56.097 2.1 12 12.8 101180 100
2007-10-17 06:39 51°13.597 2°56.097 3.5 5 12.8 101180 100
2007-10-17 06:40 51°13.596 2°56.097 3.4 1 12.8 101180 100
2007-10-17 06:41 51°13.6 2°56.096 2.6 4 12.7 101180 100
2007-10-17 06:42 51°13.605 2°56.096 1.9 358 12.8 101180 100
2007-10-17 06:43 51°13.603 2°56.096 3.5 8 12.8 101190 100
2007-10-17 06:44 51°13.602 2°56.096 3.3 359 12.7 101190 100
2007-10-17 06:45 51°13.597 2°56.096 3.1 11 12.8 101190 100
2007-10-17 06:46 51°13.598 2°56.096 4.3 359 12.8 101190 100
2007-10-17 06:47 51°13.6 2°56.095 2 4 12.8 101180 100
2007-10-17 06:48 51°13.598 2°56.095 3.4 -999 12.8 101190 100
2007-10-17 06:49 51°13.598 2°56.094 3.7 9 12.8 101180 100
2007-10-17 06:50 51°13.598 2°56.093 4.3 1 12.8 101180 100
2007-10-17 06:51 51°13.597 2°56.093 4.7 2 12.8 101190 100
2007-10-17 06:52 51°13.597 2°56.092 2.4 358 12.8 101180 100
2007-10-17 06:53 51°13.595 2°56.09 2.6 350 12.8 101190 100
2007-10-17 06:54 51°13.572 2°56.121 2.4 343 12.8 101190 100
2007-10-17 06:55 51°13.532 2°56.183 3.4 1 12.8 101190 100
2007-10-17 06:56 51°13.532 2°56.243 3.4 31 12.8 101190 100
2007-10-17 06:57 51°13.532 2°56.235 1.7 56 12.8 101190 100
2007-10-17 06:58 51°13.539 2°56.239 4.4 57 12.9 101200 100
2007-10-17 06:59 51°13.524 2°56.229 1.8 61 13 101200 100
2007-10-17 07:00 51°13.562 2°56.133 2 300 13 101190 100
2007-10-17 07:01 51°13.613 2°55.999 5.1 303 13 101190 100
2007-10-17 07:02 51°13.667 2°55.859 3.7 305 13 101190 100
2007-10-17 07:03 51°13.729 2°55.732 3.6 303 13 101190 100
2007-10-17 07:04 51°13.817 2°55.64 3.5 62 12.9 101190 100
2007-10-17 07:05 51°13.916 2°55.566 2.3 303 12.9 101190 100
2007-10-17 07:06 51°14.039 2°55.484 3.3 305 12.9 101190 100
2007-10-17 07:07 51°14.182 2°55.366 5.1 305 12.9 101180 100
2007-10-17 07:08 51°14.314 2°55.171 6.8 308 12.9 101190 100
2007-10-17 07:09 51°14.437 2°54.915 7.8 305 13 101170 100
2007-10-17 07:10 51°14.622 2°54.773 3.4 308 13 101170 100
2007-10-17 07:11 51°14.815 2°54.647 5.9 303 13 101180 100
2007-10-17 07:12 51°14.981 2°54.45 6 302 13 101180 100
2007-10-17 07:13 51°15.158 2°54.272 8.1 304 13.1 101180 100
2007-10-17 07:14 51°15.348 2°54.13 3 308 13.1 101180 100
2007-10-17 07:15 51°15.548 2°54.052 4.6 301 13.1 101180 100
2007-10-17 07:16 51°15.75 2°53.961 2.8 303 13.2 101180 100
2007-10-17 07:17 51°15.951 2°53.912 2 60 13.2 101180 100
2007-10-17 07:18 51°16.129 2°54.049 5.2 23 13.3 101180 100
2007-10-17 07:19 51°16.223 2°54.212 8.5 21 13.4 101170 100
2007-10-17 07:20 51°16.252 2°54.307 7.7 43 13.4 101170 100
2007-10-17 07:21 51°16.264 2°54.323 9.8 37 13.4 101170 100
2007-10-17 07:22 51°16.273 2°54.333 9 26 13.4 101170 100
2007-10-17 07:23 51°16.28 2°54.339 9.1 22 13.4 101170 100
2007-10-17 07:24 51°16.285 2°54.343 7.9 20 13.4 101170 100
2007-10-17 07:25 51°16.291 2°54.348 7.9 13 13.4 101170 99
2007-10-17 07:26 51°16.296 2°54.35 10.1 12 13.4 101170 100
2007-10-17 07:27 51°16.302 2°54.352 8.6 13 13.4 101170 100
2007-10-17 07:28 51°16.308 2°54.354 10 14 13.4 101170 99
2007-10-17 07:29 51°16.314 2°54.357 8.7 12 13.4 101170 99
2007-10-17 07:30 51°16.321 2°54.36 7.9 17 13.4 101170 99
2007-10-17 07:31 51°16.322 2°54.393 7.9 30 13.4 101170 99
2007-10-17 07:32 51°16.377 2°54.433 7.5 57 13.4 101180 99
2007-10-17 07:33 51°16.473 2°54.32 8.5 301 13.4 101190 99
2007-10-17 07:34 51°16.586 2°54.054 12 301 13.4 101170 99
2007-10-17 07:35 51°16.7 2°53.784 8.1 310 13.4 101180 99
2007-10-17 07:36 51°16.822 2°53.51 11.3 307 13.4 101180 99
2007-10-17 07:37 51°16.934 2°53.242 7.4 306 13.5 101180 99
2007-10-17 07:38 51°17.055 2°52.977 9.5 301 13.5 101180 99
2007-10-17 07:39 51°17.178 2°52.721 7.7 304 13.5 101180 99
2007-10-17 07:40 51°17.305 2°52.454 8.8 303 13.5 101190 99
2007-10-17 07:41 51°17.427 2°52.188 8.1 308 13.6 101180 100
2007-10-17 07:42 51°17.546 2°51.929 9.1 303 13.6 101180 100
2007-10-17 07:43 51°17.655 2°51.709 9.8 307 13.6 101180 99
2007-10-17 07:44 51°17.739 2°51.533 9.3 305 13.7 101180 99
2007-10-17 07:45 51°17.813 2°51.379 11.1 303 13.7 101190 99
2007-10-17 07:46 51°17.886 2°51.227 11 309 13.7 101180 99
2007-10-17 07:47 51°17.961 2°51.072 8.4 306 13.7 101180 99
2007-10-17 07:48 51°18.054 2°50.88 9.7 302 13.7 101180 99
2007-10-17 07:49 51°18.177 2°50.747 4 314 13.8 101180 99
2007-10-17 07:50 51°18.327 2°50.762 4.8 58 13.8 101210 99
2007-10-17 07:51 51°18.432 2°50.888 6.5 39 13.9 101210 99
2007-10-17 07:52 51°18.478 2°50.988 6.3 38 13.8 101210 99
2007-10-17 07:53 51°18.507 2°51.034 8.5 58 13.8 101210 99
2007-10-17 07:54 51°18.524 2°51.038 4.7 57 13.8 101210 98
2007-10-17 07:55 51°18.541 2°51.039 5.1 54 13.9 101210 98
2007-10-17 07:56 51°18.559 2°51.037 7.8 54 14 101210 98
2007-10-17 07:57 51°18.577 2°51.034 6.8 59 13.9 101200 98
2007-10-17 07:58 51°18.595 2°51.028 7.8 57 13.9 101210 98
2007-10-17 07:59 51°18.612 2°51.019 10.9 51 13.8 101200 98
2007-10-17 08:00 51°18.625 2°51.006 7.1 52 13.9 101200 98
2007-10-17 08:01 51°18.635 2°50.994 7.1 59 13.9 101200 98
2007-10-17 08:02 51°18.677 2°50.949 8.5 301 13.9 101210 98
2007-10-17 08:03 51°18.821 2°50.815 6.4 307 13.9 101200 98
2007-10-17 08:04 51°19.012 2°50.732 5.5 310 13.9 101210 98
2007-10-17 08:05 51°19.217 2°50.638 7 302 13.9 101210 98
2007-10-17 08:06 51°19.412 2°50.549 4.7 302 13.9 101220 98
2007-10-17 08:07 51°19.614 2°50.452 5 308 13.9 101210 98
2007-10-17 08:08 51°19.813 2°50.356 6.4 302 13.9 101210 98
2007-10-17 08:09 51°20.013 2°50.261 6.2 303 14 101210 98
2007-10-17 08:10 51°20.214 2°50.167 6.9 307 13.9 101210 98
2007-10-17 08:11 51°20.41 2°50.076 7.6 309 13.9 101220 98
2007-10-17 08:12 51°20.614 2°49.98 6.2 304 13.9 101210 99
2007-10-17 08:13 51°20.815 2°49.889 6.6 305 13.9 101220 99
2007-10-17 08:14 51°21.017 2°49.796 8.5 308 13.9 101200 99
2007-10-17 08:15 51°21.222 2°49.707 6.9 301 13.9 101200 99
2007-10-17 08:16 51°21.428 2°49.618 8.7 305 13.9 101210 99
2007-10-17 08:17 51°21.635 2°49.528 6.5 309 14 101210 99
2007-10-17 08:18 51°21.837 2°49.447 5.7 303 14 101210 99
2007-10-17 08:19 51°22.047 2°49.352 5.8 301 14 101220 99
2007-10-17 08:20 51°22.241 2°49.265 7.9 304 14 101200 99
2007-10-17 08:21 51°22.446 2°49.175 5.7 309 14 101200 99
2007-10-17 08:22 51°22.651 2°49.085 4.9 303 14 101210 99
2007-10-17 08:23 51°22.856 2°49.025 4.7 303 14 101220 99
2007-10-17 08:24 51°23.06 2°48.969 4.6 301 14 101200 99
2007-10-17 08:25 51°23.262 2°48.909 6.1 303 14 101210 99
2007-10-17 08:26 51°23.466 2°48.846 10.9 302 14 101200 99
2007-10-17 08:27 51°23.673 2°48.783 5.9 303 14.1 101200 99
2007-10-17 08:28 51°23.876 2°48.726 6 306 14.1 101210 99
2007-10-17 08:29 51°24.081 2°48.663 6.5 302 14.1 101210 100
2007-10-17 08:30 51°24.284 2°48.597 5 306 14.1 101210 100
2007-10-17 08:31 51°24.489 2°48.534 7.2 306 14.1 101210 100
2007-10-17 08:32 51°24.695 2°48.473 5.8 309 14.1 101210 100
2007-10-17 08:33 51°24.902 2°48.42 5.7 305 14.1 101220 100
2007-10-17 08:34 51°25.111 2°48.383 5.3 307 14.1 101200 100
2007-10-17 08:35 51°25.323 2°48.352 6 302 14.1 101200 100
2007-10-17 08:36 51°25.526 2°48.32 5.4 301 14.1 101200 100
2007-10-17 08:37 51°25.716 2°48.282 7.6 58 14.1 101200 100
2007-10-17 08:38 51°25.826 2°48.311 3.6 51 14.1 101210 100
2007-10-17 08:39 51°25.908 2°48.389 5.7 59 14.4 101210 100
2007-10-17 08:40 51°25.976 2°48.451 4.5 53 14.5 101220 100
2007-10-17 08:41 51°26.005 2°48.503 9.6 38 14.7 101210 99
2007-10-17 08:42 51°26.015 2°48.512 9.4 35 14.5 101210 99
2007-10-17 08:43 51°26.022 2°48.521 11.2 29 14.5 101190 99
2007-10-17 08:44 51°26.027 2°48.525 9.7 21 14.3 101190 99
2007-10-17 08:45 51°26.033 2°48.528 9.9 16 14.3 101200 99
2007-10-17 08:46 51°26.039 2°48.53 10.2 20 14.3 101190 100
2007-10-17 08:47 51°26.047 2°48.531 10.7 18 14.2 101190 100
2007-10-17 08:48 51°26.055 2°48.532 10.6 17 14.2 101190 100
2007-10-17 08:49 51°26.063 2°48.534 11.4 19 14.2 101190 100
2007-10-17 08:50 51°26.071 2°48.535 11.4 19 14.1 101190 100
2007-10-17 08:51 51°26.08 2°48.536 9.1 22 14.1 101190 100
2007-10-17 08:52 51°26.088 2°48.538 11.2 19 14.1 101190 100
2007-10-17 08:53 51°26.094 2°48.541 9.8 16 14.1 101200 100
2007-10-17 08:54 51°26.1 2°48.545 10.8 17 14.1 101200 100
2007-10-17 08:55 51°26.106 2°48.549 10.8 22 14 101200 100
2007-10-17 08:56 51°26.113 2°48.553 9.6 23 14.1 101220 100
2007-10-17 08:57 51°26.112 2°48.602 8.3 41 14 101210 100
2007-10-17 08:58 51°26.16 2°48.636 6.6 305 14 101240 100
2007-10-17 08:59 51°26.298 2°48.586 11.1 308 14 101240 100
2007-10-17 09:00 51°26.498 2°48.528 8.3 304 14 101240 100
2007-10-17 09:01 51°26.7 2°48.465 6.9 309 14 101230 100
2007-10-17 09:02 51°26.9 2°48.413 7.4 309 14 101240 100
2007-10-17 09:03 51°27.096 2°48.368 10.8 309 14 101240 100
2007-10-17 09:04 51°27.303 2°48.322 9 304 14 101240 100
2007-10-17 09:05 51°27.503 2°48.275 6.1 306 14 101240 100
2007-10-17 09:06 51°27.701 2°48.22 10.9 308 14 101240 100
2007-10-17 09:07 51°27.9 2°48.16 13.7 330 14 101220 100
2007-10-17 09:08 51°28.097 2°48.101 17.3 339 14 101220 100
2007-10-17 09:09 51°28.29 2°48.044 21.4 335 13.9 101260 100
2007-10-17 09:10 51°28.481 2°47.985 19.1 333 13.9 101250 100
2007-10-17 09:11 51°28.673 2°47.932 19.4 336 14 101240 100
2007-10-17 09:12 51°28.864 2°47.88 19.4 337 14.1 101260 99
2007-10-17 09:13 51°29.054 2°47.831 20 329 14.1 101240 98
2007-10-17 09:14 51°29.242 2°47.78 21 333 14.2 101220 96
2007-10-17 09:15 51°29.429 2°47.726 20.3 335 14.2 101260 96
2007-10-17 09:16 51°29.617 2°47.673 18.8 335 14.2 101250 94
2007-10-17 09:17 51°29.802 2°47.619 20 334 14.2 101260 92
2007-10-17 09:18 51°29.987 2°47.567 18.3 332 14.2 101270 92
2007-10-17 09:19 51°30.172 2°47.511 21.4 334 14.3 101250 91
2007-10-17 09:20 51°30.356 2°47.453 18.1 335 14.3 101260 91
2007-10-17 09:21 51°30.54 2°47.401 16.8 331 14.3 101260 90
2007-10-17 09:22 51°30.725 2°47.345 19 332 14.4 101270 91
2007-10-17 09:23 51°30.908 2°47.288 16.7 335 14.4 101250 90
2007-10-17 09:24 51°31.092 2°47.231 17.7 336 14.4 101240 90
2007-10-17 09:25 51°31.275 2°47.174 18.3 334 14.4 101270 90
2007-10-17 09:26 51°31.459 2°47.124 18.9 332 14.4 101270 91
2007-10-17 09:27 51°31.644 2°47.091 17.2 329 14.4 101280 90
2007-10-17 09:28 51°31.829 2°47.055 16.6 330 14.4 101270 91
2007-10-17 09:29 51°32.015 2°47.019 18.7 331 14.4 101280 91
2007-10-17 09:30 51°32.201 2°46.986 18.5 332 14.4 101280 90
2007-10-17 09:31 51°32.385 2°46.948 20.7 333 14.4 101300 87
2007-10-17 09:32 51°32.57 2°46.909 21.9 333 14.5 101290 84
2007-10-17 09:33 51°32.754 2°46.872 20.1 332 14.5 101290 84
2007-10-17 09:34 51°32.938 2°46.838 18.4 332 14.5 101310 85
2007-10-17 09:35 51°33.124 2°46.806 17.5 328 14.4 101300 87
2007-10-17 09:36 51°33.309 2°46.788 16.9 331 14.4 101280 86
2007-10-17 09:37 51°33.494 2°46.773 19.3 330 14.5 101290 86
2007-10-17 09:38 51°33.678 2°46.759 20.3 329 14.4 101300 87
2007-10-17 09:39 51°33.859 2°46.743 19.6 330 14.4 101330 87
2007-10-17 09:40 51°34.041 2°46.734 18.7 302 14.4 101310 89
2007-10-17 09:41 51°34.218 2°46.779 19.6 306 14.4 101310 91
2007-10-17 09:42 51°34.322 2°46.86 14 304 14.3 101310 91
2007-10-17 09:43 51°34.374 2°46.909 18.2 305 14.3 101330 93
2007-10-17 09:44 51°34.424 2°46.959 17 304 14.2 101320 92
2007-10-17 09:45 51°34.476 2°47.013 15.8 306 14.1 101330 91
2007-10-17 09:46 51°34.533 2°47.059 19 306 14.1 101320 91
2007-10-17 09:47 51°34.589 2°47.114 16.2 305 14.1 101350 91
2007-10-17 09:48 51°34.644 2°47.174 16.1 302 14.1 101340 92
2007-10-17 09:49 51°34.695 2°47.237 16 304 14.1 101330 90
2007-10-17 09:50 51°34.748 2°47.289 16.7 306 14 101330 89
2007-10-17 09:51 51°34.795 2°47.35 17 303 14 101360 90
2007-10-17 09:52 51°34.83 2°47.4 16 304 14 101360 91
2007-10-17 09:53 51°34.824 2°47.422 15.4 304 14 101370 89
2007-10-17 09:54 51°34.801 2°47.43 14.1 305 14 101370 88
2007-10-17 09:55 51°34.769 2°47.427 15.9 306 14 101380 89
2007-10-17 09:56 51°34.735 2°47.416 14.9 304 14 101420 88
2007-10-17 09:57 51°34.701 2°47.402 14.3 302 14 101450 89
2007-10-17 09:58 51°34.665 2°47.387 14 306 14 101420 89
2007-10-17 09:59 51°34.635 2°47.396 12.5 302 13.9 101440 89
2007-10-17 10:00 51°34.656 2°47.428 17 302 14 101370 89
2007-10-17 10:01 51°34.667 2°47.322 12.2 8 13.9 101370 86
2007-10-17 10:02 51°34.686 2°47.043 17.3 353 14 101350 86
2007-10-17 10:03 51°34.737 2°46.74 18.4 353 14 101370 87
2007-10-17 10:04 51°34.79 2°46.442 18.1 354 13.9 101370 87
2007-10-17 10:05 51°34.846 2°46.143 16.8 351 13.9 101370 86
2007-10-17 10:06 51°34.903 2°45.96 15.2 342 14 101380 87
2007-10-17 10:07 51°34.939 2°45.887 15.7 334 13.9 101420 86
2007-10-17 10:08 51°34.996 2°45.836 15.8 331 13.9 101420 88
2007-10-17 10:09 51°35.027 2°45.783 12.7 335 13.9 101420 88
2007-10-17 10:10 51°35.014 2°45.756 13.4 307 14 101430 88
2007-10-17 10:11 51°34.978 2°45.729 16.9 305 13.9 101410 85
2007-10-17 10:12 51°34.942 2°45.694 14.1 306 13.9 101450 85
2007-10-17 10:13 51°34.911 2°45.658 10 302 13.9 101480 86
2007-10-17 10:14 51°34.88 2°45.632 10.9 307 13.9 101470 84
2007-10-17 10:15 51°34.85 2°45.611 15.5 303 13.9 101450 86
2007-10-17 10:16 51°34.818 2°45.604 9.3 306 13.9 101450 87
2007-10-17 10:17 51°34.764 2°45.636 13.3 51 13.8 101500 86
2007-10-17 10:18 51°34.662 2°45.589 8.8 54 13.9 101430 86
2007-10-17 10:19 51°34.463 2°45.53 4.5 54 13.9 101450 87
2007-10-17 10:20 51°34.245 2°45.477 6.4 42 13.9 101450 88
2007-10-17 10:21 51°34.019 2°45.413 8.8 40 13.8 101450 89
2007-10-17 10:22 51°33.793 2°45.347 9.9 58 13.7 101450 88
2007-10-17 10:23 51°33.569 2°45.282 7.2 53 13.5 101460 86
2007-10-17 10:24 51°33.345 2°45.215 9.7 42 13.5 101460 87
2007-10-17 10:25 51°33.12 2°45.142 6.2 33 13.5 101470 86
2007-10-17 10:26 51°32.898 2°45.074 8.2 40 13.5 101460 87
2007-10-17 10:27 51°32.677 2°45.007 8.4 51 13.5 101480 85
2007-10-17 10:28 51°32.454 2°44.94 7.4 38 13.6 101480 86
2007-10-17 10:29 51°32.231 2°44.867 7.1 54 13.6 101480 87
2007-10-17 10:30 51°32.006 2°44.793 7.4 38 13.7 101480 88
2007-10-17 10:31 51°31.785 2°44.722 8.5 44 13.7 101480 89
2007-10-17 10:32 51°31.563 2°44.64 7.9 51 13.8 101480 88
2007-10-17 10:33 51°31.342 2°44.552 8.7 40 13.8 101480 91
2007-10-17 10:34 51°31.123 2°44.467 9.2 29 13.6 101480 89
2007-10-17 10:35 51°30.904 2°44.371 8.2 30 13.5 101480 90
2007-10-17 10:36 51°30.685 2°44.282 7.3 32 13.5 101490 90
2007-10-17 10:37 51°30.465 2°44.179 10.4 33 13.5 101490 91
2007-10-17 10:38 51°30.246 2°44.073 10.2 41 13.4 101500 90
2007-10-17 10:39 51°30.028 2°43.974 6.6 36 13.4 101490 89
2007-10-17 10:40 51°29.811 2°43.875 6.2 31 13.3 101500 88
2007-10-17 10:41 51°29.594 2°43.774 7.5 32 13.4 101500 86
2007-10-17 10:42 51°29.374 2°43.677 9.1 25 13.5 101500 88
2007-10-17 10:43 51°29.154 2°43.572 8.9 26 13.4 101510 84
2007-10-17 10:44 51°28.933 2°43.469 8.1 38 13.5 101510 82
2007-10-17 10:45 51°28.712 2°43.376 7 36 13.5 101510 81
2007-10-17 10:46 51°28.496 2°43.283 9.6 37 13.6 101510 81
2007-10-17 10:47 51°28.279 2°43.193 8.2 33 13.7 101510 81
2007-10-17 10:48 51°28.065 2°43.098 8.2 43 13.8 101520 84
2007-10-17 10:49 51°27.848 2°42.996 9.6 40 13.8 101510 79
2007-10-17 10:50 51°27.633 2°42.907 7.9 34 13.8 101510 77
2007-10-17 10:51 51°27.418 2°42.81 8.8 38 13.9 101510 76
2007-10-17 10:52 51°27.202 2°42.711 7.1 38 13.9 101520 73
2007-10-17 10:53 51°26.984 2°42.609 10 44 14 101520 74
2007-10-17 10:54 51°26.769 2°42.51 7.8 40 14 101520 74
2007-10-17 10:55 51°26.554 2°42.418 7.4 29 14 101530 74
2007-10-17 10:56 51°26.341 2°42.32 7.6 33 14 101530 75
2007-10-17 10:57 51°26.119 2°42.223 7.4 42 14.1 101530 76
2007-10-17 10:58 51°25.909 2°42.117 7.1 32 14 101530 74
2007-10-17 10:59 51°25.692 2°42.022 7.1 24 14.1 101540 78
2007-10-17 11:00 51°25.474 2°41.926 8 35 14.1 101530 81
2007-10-17 11:01 51°25.26 2°41.83 9.8 28 14.1 101530 77
2007-10-17 11:02 51°25.043 2°41.741 10.8 39 14 101530 74
2007-10-17 11:03 51°24.827 2°41.645 7.5 39 14 101530 75
2007-10-17 11:04 51°24.608 2°41.551 6.1 40 14.1 101530 79
2007-10-17 11:05 51°24.39 2°41.462 7.5 39 14.1 101540 81
2007-10-17 11:06 51°24.173 2°41.371 9.1 39 14.1 101540 79
2007-10-17 11:07 51°23.955 2°41.283 9.9 34 14.1 101530 77
2007-10-17 11:08 51°23.739 2°41.192 8.9 37 14.1 101550 77
2007-10-17 11:09 51°23.524 2°41.109 6.3 37 14.1 101550 76
2007-10-17 11:10 51°23.309 2°41.022 8.1 32 14.1 101560 78
2007-10-17 11:11 51°23.097 2°40.932 6.6 43 14.1 101570 77
2007-10-17 11:12 51°22.884 2°40.848 5.9 37 14.1 101560 77
2007-10-17 11:13 51°22.669 2°40.757 6.6 40 14.1 101570 79
2007-10-17 11:14 51°22.453 2°40.668 7.3 38 14.1 101560 78
2007-10-17 11:15 51°22.236 2°40.586 6.3 37 14.1 101560 80
2007-10-17 11:16 51°22.021 2°40.487 5.3 59 14 101570 78
2007-10-17 11:17 51°21.807 2°40.38 8.1 35 14.1 101560 80
2007-10-17 11:18 51°21.59 2°40.27 9.7 41 14.1 101570 79
2007-10-17 11:19 51°21.373 2°40.171 7.9 31 14.1 101560 79
2007-10-17 11:20 51°21.161 2°40.082 10 33 14.1 101560 83
2007-10-17 11:21 51°20.95 2°39.965 10.2 30 13.9 101550 84
2007-10-17 11:22 51°20.742 2°39.832 11.1 31 13.8 101570 86
2007-10-17 11:23 51°20.532 2°39.712 7.9 28 13.7 101570 88
2007-10-17 11:24 51°20.323 2°39.59 8.3 30 13.6 101570 86
2007-10-17 11:25 51°20.114 2°39.462 10.3 25 13.6 101580 88
2007-10-17 11:26 51°19.905 2°39.336 9.4 28 13.6 101580 89
2007-10-17 11:27 51°19.695 2°39.214 9.2 28 13.6 101570 88
2007-10-17 11:28 51°19.487 2°39.091 6.4 27 13.5 101570 88
2007-10-17 11:29 51°19.273 2°38.965 10.8 36 13.5 101580 88
2007-10-17 11:30 51°19.06 2°38.832 8.9 31 13.4 101580 87
2007-10-17 11:31 51°18.846 2°38.7 8.5 34 13.5 101580 87
2007-10-17 11:32 51°18.635 2°38.568 6.7 33 13.4 101590 87
2007-10-17 11:33 51°18.422 2°38.44 9.5 30 13.4 101590 86
2007-10-17 11:34 51°18.21 2°38.319 10.2 31 13.5 101580 85
2007-10-17 11:35 51°18.001 2°38.196 9.6 28 13.5 101590 84
2007-10-17 11:36 51°17.79 2°38.076 8 31 13.5 101590 84
2007-10-17 11:37 51°17.58 2°37.953 6.7 27 13.5 101590 85
2007-10-17 11:38 51°17.371 2°37.831 9.3 33 13.5 101590 85
2007-10-17 11:39 51°17.16 2°37.698 6.7 32 13.5 101590 83
2007-10-17 11:40 51°16.949 2°37.578 8.9 23 13.6 101590 85
2007-10-17 11:41 51°16.741 2°37.447 9.2 32 13.5 101590 83
2007-10-17 11:42 51°16.532 2°37.316 10.4 27 13.5 101600 81
2007-10-17 11:43 51°16.34 2°37.137 11 25 13.6 101600 82
2007-10-17 11:44 51°16.194 2°36.884 11.5 8 13.6 101580 81
2007-10-17 11:45 51°16.137 2°36.656 13 2 13.7 101560 82
2007-10-17 11:46 51°16.169 2°36.528 13.2 328 13.7 101570 77
2007-10-17 11:47 51°16.24 2°36.511 17.7 303 13.8 101580 76
2007-10-17 11:48 51°16.338 2°36.522 14.6 303 13.8 101580 75
2007-10-17 11:49 51°16.43 2°36.586 15.4 306 13.8 101560 76
2007-10-17 11:50 51°16.509 2°36.679 14.6 305 13.9 101550 76
2007-10-17 11:51 51°16.575 2°36.75 12.3 309 13.9 101570 74
2007-10-17 11:52 51°16.596 2°36.797 12.9 306 14 101590 76
2007-10-17 11:53 51°16.593 2°36.808 12.8 303 14.1 101590 73
2007-10-17 11:54 51°16.57 2°36.803 15.7 301 14.1 101580 72
2007-10-17 11:55 51°16.538 2°36.791 17.3 304 14.2 101610 70
2007-10-17 11:56 51°16.506 2°36.773 8.7 306 14.2 101640 70
2007-10-17 11:57 51°16.474 2°36.754 10.2 303 14.2 101640 68
2007-10-17 11:58 51°16.444 2°36.737 12.9 306 14.1 101650 70
2007-10-17 11:59 51°16.413 2°36.723 7.7 304 14.1 101630 70
2007-10-17 12:00 51°16.385 2°36.711 9.1 306 14.1 101650 69
2007-10-17 12:01 51°16.358 2°36.7 15.2 304 14.1 101650 70
2007-10-17 12:02 51°16.331 2°36.689 12.8 305 14.1 101640 71
2007-10-17 12:03 51°16.307 2°36.718 11.7 57 14.1 101660 72
2007-10-17 12:04 51°16.237 2°36.753 11.5 38 14.1 101670 71
2007-10-17 12:05 51°16.111 2°36.685 10.5 36 14.1 101610 73
2007-10-17 12:06 51°15.932 2°36.601 9.3 33 14.1 101620 72
2007-10-17 12:07 51°15.717 2°36.507 7.6 24 14 101630 72
2007-10-17 12:08 51°15.507 2°36.416 7.2 30 14.1 101640 73
2007-10-17 12:09 51°15.289 2°36.402 7.4 55 14.1 101640 75
2007-10-17 12:10 51°15.073 2°36.393 6.9 59 14.1 101630 71
2007-10-17 12:11 51°14.859 2°36.369 6.2 34 14.1 101640 75
2007-10-17 12:12 51°14.66 2°36.44 4 58 14 101640 71
2007-10-17 12:13 51°14.486 2°36.611 8.1 56 14.3 101650 70
2007-10-17 12:14 51°14.381 2°36.878 9 302 14.2 101660 70
2007-10-17 12:15 51°14.312 2°37.167 9.2 307 14.2 101650 71
2007-10-17 12:16 51°14.234 2°37.457 7.1 303 14.2 101640 72
2007-10-17 12:17 51°14.179 2°37.755 11.4 303 14.1 101660 72
2007-10-17 12:18 51°14.119 2°38.052 6.4 309 14.1 101650 73
2007-10-17 12:19 51°14.08 2°38.352 15.3 309 14.1 101620 73
2007-10-17 12:20 51°14.039 2°38.655 15.6 307 14.2 101650 74
2007-10-17 12:21 51°13.957 2°38.933 6.2 58 14.3 101660 73
2007-10-17 12:22 51°13.754 2°38.951 8.9 40 14.3 101630 69
2007-10-17 12:23 51°13.55 2°38.848 8.1 35 14.2 101630 69
2007-10-17 12:24 51°13.354 2°38.709 11.4 28 14.2 101630 69
2007-10-17 12:25 51°13.157 2°38.559 9.8 27 14.2 101630 71
2007-10-17 12:26 51°12.956 2°38.422 8.8 24 14.2 101630 72
2007-10-17 12:27 51°12.758 2°38.276 9.8 33 14.2 101630 74
2007-10-17 12:28 51°12.558 2°38.145 10.9 33 14.1 101630 70
2007-10-17 12:29 51°12.361 2°38.009 9.1 26 14.1 101630 69
2007-10-17 12:30 51°12.165 2°37.872 10 34 14.1 101640 69
2007-10-17 12:31 51°11.975 2°37.734 6.2 30 14 101640 68
2007-10-17 12:32 51°11.776 2°37.603 10.3 30 14.1 101640 69
2007-10-17 12:33 51°11.576 2°37.471 9.5 29 14.1 101650 72
2007-10-17 12:34 51°11.379 2°37.349 10.7 26 14 101650 70
2007-10-17 12:35 51°11.185 2°37.202 9.9 21 14 101650 69
2007-10-17 12:36 51°10.992 2°37.057 10.4 24 14.1 101650 69
2007-10-17 12:37 51°10.802 2°36.913 8.3 30 14.1 101660 69
2007-10-17 12:38 51°10.612 2°36.776 8 28 14.1 101660 69
2007-10-17 12:39 51°10.421 2°36.643 8.8 33 14.1 101670 69
2007-10-17 12:40 51°10.221 2°36.691 6 52 14.1 101680 68
2007-10-17 12:41 51°10.094 2°36.938 8.9 302 14.1 101680 67
2007-10-17 12:42 51°10.08 2°37.256 15.7 308 14.1 101660 69
2007-10-17 12:43 51°10.1 2°37.577 12.9 309 14.2 101650 68
2007-10-17 12:44 51°10.118 2°37.899 12.2 307 14.2 101640 69
2007-10-17 12:45 51°10.143 2°38.216 12.1 306 14.2 101650 69
2007-10-17 12:46 51°10.161 2°38.535 10.2 305 14.2 101680 68
2007-10-17 12:47 51°10.188 2°38.853 14.2 306 14.2 101650 69
2007-10-17 12:48 51°10.229 2°39.164 12 304 14.2 101660 70
2007-10-17 12:49 51°10.275 2°39.476 12.2 307 14.1 101640 70
2007-10-17 12:50 51°10.333 2°39.783 16.5 305 14.2 101640 71
2007-10-17 12:51 51°10.401 2°40.082 16.1 308 14.1 101630 70
2007-10-17 12:52 51°10.473 2°40.383 13.3 309 14.1 101630 69
2007-10-17 12:53 51°10.545 2°40.683 14.6 303 14.1 101620 67
2007-10-17 12:54 51°10.618 2°40.982 14.6 308 14.1 101630 68
2007-10-17 12:55 51°10.713 2°41.264 15.1 306 14.1 101650 69
2007-10-17 12:56 51°10.815 2°41.54 15.8 304 14.1 101640 67
2007-10-17 12:57 51°10.92 2°41.778 16.5 306 14.1 101640 67
2007-10-17 12:58 51°10.996 2°41.932 15.5 306 14.1 101650 66
2007-10-17 12:59 51°11.042 2°42.012 12.8 300 14.2 101660 65
2007-10-17 13:00 51°11.058 2°42.052 14.1 306 14.1 101680 65
2007-10-17 13:01 51°11.1 2°42.079 12.7 302 14.1 101660 65
2007-10-17 13:02 51°11.112 2°42.096 12.2 303 14.1 101690 64
2007-10-17 13:03 51°11.103 2°42.12 14.4 306 14 101670 65
2007-10-17 13:04 51°11.09 2°42.143 13.1 308 14.1 101690 67
2007-10-17 13:05 51°11.075 2°42.163 7.5 309 14 101690 65
2007-10-17 13:06 51°11.059 2°42.183 10.6 301 14 101700 66
2007-10-17 13:07 51°11.045 2°42.215 10.3 303 13.9 101700 66
2007-10-17 13:08 51°11.012 2°42.287 5.9 59 14 101710 71
2007-10-17 13:09 51°10.959 2°42.302 10.9 39 14 101720 64
2007-10-17 13:10 51°10.926 2°42.298 10.4 35 14 101720 66
2007-10-17 13:11 51°10.902 2°42.297 12.3 26 14 101720 70
2007-10-17 13:12 51°10.866 2°42.254 13 15 14 101730 65
2007-10-17 13:13 51°10.844 2°42.182 11.3 4 13.9 101710 67
2007-10-17 13:14 51°10.841 2°42.099 12.5 1 13.9 101720 66
2007-10-17 13:15 51°10.826 2°42.011 10.7 5 13.9 101710 67
2007-10-17 13:16 51°10.805 2°41.928 14 13 13.9 101730 69
2007-10-17 13:17 51°10.776 2°41.866 13.8 21 13.9 101710 65
2007-10-17 13:18 51°10.744 2°41.81 9.7 23 13.9 101720 67
2007-10-17 13:19 51°10.71 2°41.754 9.1 16 13.9 101720 68
2007-10-17 13:20 51°10.679 2°41.687 11.7 15 13.9 101730 69
2007-10-17 13:21 51°10.655 2°41.61 12 15 13.9 101720 68
2007-10-17 13:22 51°10.633 2°41.533 13.4 9 13.9 101720 65
2007-10-17 13:23 51°10.609 2°41.46 15 12 13.9 101720 64
2007-10-17 13:24 51°10.584 2°41.38 14.7 7 13.8 101720 61
2007-10-17 13:25 51°10.553 2°41.306 13 14 13.9 101720 63
2007-10-17 13:26 51°10.529 2°41.23 12.2 11 13.9 101730 63
2007-10-17 13:27 51°10.507 2°41.151 9.8 15 13.9 101730 64
2007-10-17 13:28 51°10.483 2°41.073 11.3 9 13.8 101740 66
2007-10-17 13:29 51°10.459 2°41 12.3 16 13.9 101730 68
2007-10-17 13:30 51°10.433 2°40.926 7.8 9 13.8 101740 66
2007-10-17 13:31 51°10.406 2°40.852 13.8 10 13.9 101740 67
2007-10-17 13:32 51°10.38 2°40.783 13.5 14 13.8 101740 65
2007-10-17 13:33 51°10.356 2°40.714 12.1 13 13.9 101750 66
2007-10-17 13:34 51°10.334 2°40.641 12.1 9 13.9 101740 68
2007-10-17 13:35 51°10.319 2°40.57 10.2 358 13.9 101750 67
2007-10-17 13:36 51°10.308 2°40.502 12 357 13.8 101730 67
2007-10-17 13:37 51°10.299 2°40.436 11.8 2 13.8 101740 68
2007-10-17 13:38 51°10.293 2°40.363 12 2 13.8 101740 68
2007-10-17 13:39 51°10.286 2°40.292 10.5 -999 13.8 101750 68
2007-10-17 13:40 51°10.278 2°40.217 13.2 1 13.8 101740 67
2007-10-17 13:41 51°10.27 2°40.147 11.7 358 13.8 101740 62
2007-10-17 13:42 51°10.261 2°40.073 10.5 3 13.8 101740 63
2007-10-17 13:43 51°10.251 2°39.996 9.5 9 13.8 101750 65
2007-10-17 13:44 51°10.243 2°39.916 10.7 2 13.8 101750 66
2007-10-17 13:45 51°10.243 2°39.846 13.9 1 13.9 101760 64
2007-10-17 13:46 51°10.249 2°39.781 12 358 13.8 101760 64
2007-10-17 13:47 51°10.26 2°39.717 12.1 357 13.8 101750 62
2007-10-17 13:48 51°10.269 2°39.659 13.4 353 13.8 101760 61
2007-10-17 13:49 51°10.288 2°39.604 12.8 343 13.7 101770 63
2007-10-17 13:50 51°10.331 2°39.575 12 324 13.8 101750 66
2007-10-17 13:51 51°10.371 2°39.631 11.3 305 13.8 101760 65
2007-10-17 13:52 51°10.38 2°39.689 10.6 305 13.9 101780 68
2007-10-17 13:53 51°10.379 2°39.735 11.9 305 13.9 101790 64
2007-10-17 13:54 51°10.37 2°39.774 10.4 305 14 101780 63
2007-10-17 13:55 51°10.36 2°39.808 11.3 306 14 101770 63
2007-10-17 13:56 51°10.356 2°39.87 10 303 14 101790 66
2007-10-17 13:57 51°10.373 2°39.99 13.1 301 13.9 101790 64
2007-10-17 13:58 51°10.404 2°40.194 10.2 309 13.9 101780 64
2007-10-17 13:59 51°10.437 2°40.415 13.2 302 13.9 101780 64
2007-10-17 14:00 51°10.472 2°40.639 13.5 310 13.9 101780 66
2007-10-17 14:01 51°10.514 2°40.888 10.1 308 13.8 101770 63
2007-10-17 14:02 51°10.566 2°41.177 14 246 13.9 101790 65
2007-10-17 14:03 51°10.625 2°41.501 12 305 13.8 101780 63
2007-10-17 14:04 51°10.685 2°41.831 12.8 302 13.9 101780 65
2007-10-17 14:05 51°10.746 2°42.17 13.3 308 13.9 101770 62
2007-10-17 14:06 51°10.815 2°42.508 12.6 305 13.9 101770 62
2007-10-17 14:07 51°10.886 2°42.833 11.1 305 13.9 101780 64
2007-10-17 14:08 51°10.959 2°43.163 13.2 305 13.9 101780 64
2007-10-17 14:09 51°11.03 2°43.493 11.1 305 13.9 101800 64
2007-10-17 14:10 51°11.099 2°43.823 12.6 309 13.9 101780 66
2007-10-17 14:11 51°11.169 2°44.153 12.2 305 13.9 101800 66
2007-10-17 14:12 51°11.239 2°44.481 16.2 307 14 101780 63
2007-10-17 14:13 51°11.321 2°44.799 13.3 309 14.1 101780 64
2007-10-17 14:14 51°11.406 2°45.119 13.3 307 14.1 101780 62
2007-10-17 14:15 51°11.49 2°45.439 12.3 242 14.1 101770 64
2007-10-17 14:16 51°11.574 2°45.761 11.9 242 14.2 101770 62
2007-10-17 14:17 51°11.657 2°46.082 13.7 303 14.2 101770 63
2007-10-17 14:18 51°11.74 2°46.402 13.3 305 14.2 101780 64
2007-10-17 14:19 51°11.825 2°46.724 12 304 14.2 101780 67
2007-10-17 14:20 51°11.911 2°47.045 13.6 242 14.1 101770 66
2007-10-17 14:21 51°11.996 2°47.363 13.8 304 14.1 101780 65
2007-10-17 14:22 51°12.095 2°47.674 11.9 233 14.1 101770 65
2007-10-17 14:23 51°12.207 2°47.973 17.7 305 14.1 101760 65
2007-10-17 14:24 51°12.315 2°48.271 12.9 305 14.1 101770 66
2007-10-17 14:25 51°12.422 2°48.569 13.7 302 14.1 101780 66
2007-10-17 14:26 51°12.531 2°48.872 13.6 304 14 101780 64
2007-10-17 14:27 51°12.641 2°49.182 14.3 301 14 101770 66
2007-10-17 14:28 51°12.749 2°49.475 13.2 304 14 101770 66
2007-10-17 14:29 51°12.861 2°49.786 13.5 240 14 101780 67
2007-10-17 14:30 51°12.974 2°50.086 12.8 237 13.9 101770 68
2007-10-17 14:31 51°13.083 2°50.392 15.4 237 13.8 101770 66
2007-10-17 14:32 51°13.194 2°50.697 12.5 236 13.9 101780 66
2007-10-17 14:33 51°13.307 2°51 13.7 233 13.8 101780 67
2007-10-17 14:34 51°13.418 2°51.302 16 304 13.8 101770 64
2007-10-17 14:35 51°13.53 2°51.606 15.2 303 13.8 101780 66
2007-10-17 14:36 51°13.644 2°51.909 12.6 235 13.8 101760 65
2007-10-17 14:37 51°13.757 2°52.216 14.5 304 13.9 101760 66
2007-10-17 14:38 51°13.873 2°52.518 11.3 303 13.9 101790 66
2007-10-17 14:39 51°13.99 2°52.82 13.4 305 13.9 101770 64
2007-10-17 14:40 51°14.1 2°53.124 15.3 302 13.9 101800 66
2007-10-17 14:41 51°14.207 2°53.43 14.1 238 13.9 101770 64
2007-10-17 14:42 51°14.304 2°53.74 11.2 242 14 101780 66
2007-10-17 14:43 51°14.356 2°54.084 10.5 242 14 101810 66
2007-10-17 14:44 51°14.393 2°54.432 12.9 247 14.1 101810 65
2007-10-17 14:45 51°14.406 2°54.782 9.1 254 14.1 101800 65
2007-10-17 14:46 51°14.338 2°55.102 5.1 311 14.1 101830 67
2007-10-17 14:47 51°14.208 2°55.332 3.7 34 14 101840 64
2007-10-17 14:48 51°14.097 2°55.434 4.9 36 14.1 101840 65
2007-10-17 14:49 51°14.033 2°55.482 4.6 33 14.1 101840 63
2007-10-17 14:50 51°13.97 2°55.529 4.6 31 14.4 101840 65
2007-10-17 14:51 51°13.901 2°55.578 3.8 38 14.5 101840 66
2007-10-17 14:52 51°13.825 2°55.633 4.2 39 14.8 101840 63
2007-10-17 14:53 51°13.747 2°55.709 4.5 33 14.9 101840 62
2007-10-17 14:54 51°13.678 2°55.844 5.5 25 14.6 101840 63
2007-10-17 14:55 51°13.636 2°55.952 4.2 267 14.3 101850 62
2007-10-17 14:56 51°13.61 2°56.035 6.8 27 14.2 101850 62
2007-10-17 14:57 51°13.601 2°56.082 8.1 28 14 101850 63
2007-10-17 14:58 51°13.597 2°56.093 4.4 27 14 101850 65
2007-10-17 14:59 51°13.596 2°56.096 8.4 25 13.9 101850 65
2007-10-17 15:00 51°13.597 2°56.094 4.5 23 13.8 101850 64